Time;durP1;ratioP1;P1;durP2;ratioP2;P2;SDS_P1;SDS_P2;PMS_P1;PMS_P2;Temp;Humidity;BMP_temperature;BMP_pressure;BME280_temperature;BME280_humidity;BME280_pressure;Samples;Min_cycle;Max_cycle;Signal;HPM_P1;HPM_P2
2021/08/05 00:00:48;;;;;;;8.38;7.28;;;27.50;67.20;;;;;;4185767;28;20046;-63
2021/08/05 00:02:51;;;;;;;7.88;6.72;;;27.50;67.20;;;;;;4185980;28;20105;-63
2021/08/05 00:04:53;;;;;;;11.27;8.05;;;27.50;67.20;;;;;;4185794;28;20105;-63
2021/08/05 00:06:54;;;;;;;8.35;7.45;;;27.50;67.20;;;;;;4185675;28;20107;-63
2021/08/05 00:08:56;;;;;;;8.27;7.57;;;27.40;67.20;;;;;;4185718;28;20045;-63
2021/08/05 00:10:59;;;;;;;7.88;6.65;;;27.50;67.30;;;;;;4184408;28;20069;-47
2021/08/05 00:13:02;;;;;;;8.40;7.60;;;27.40;67.20;;;;;;4184455;28;20222;-45
2021/08/05 00:15:05;;;;;;;7.00;6.30;;;27.40;67.30;;;;;;4185090;28;20064;-43
2021/08/05 00:17:07;;;;;;;8.05;6.75;;;27.40;67.10;;;;;;4184889;28;20046;-52
2021/08/05 00:19:10;;;;;;;7.43;6.72;;;27.40;67.10;;;;;;4185535;28;20045;-62
2021/08/05 00:21:11;;;;;;;8.82;6.78;;;27.50;67.00;;;;;;4185672;28;20050;-63
2021/08/05 00:23:14;;;;;;;9.40;6.68;;;27.40;67.00;;;;;;4185438;28;20046;-63
2021/08/05 00:25:16;;;;;;;10.57;6.50;;;27.40;66.90;;;;;;4185458;28;20042;-63
2021/08/05 00:27:17;;;;;;;9.38;7.00;;;27.40;66.80;;;;;;4185460;28;20045;-63
2021/08/05 00:29:19;;;;;;;9.00;6.00;;;27.40;66.80;;;;;;4185401;28;20045;-63
2021/08/05 00:31:21;;;;;;;6.68;6.03;;;27.40;67.10;;;;;;4185389;28;20051;-63
2021/08/05 00:33:23;;;;;;;7.63;6.30;;;27.40;66.90;;;;;;4185295;28;20041;-63
2021/08/05 00:35:25;;;;;;;12.65;6.50;;;27.40;66.90;;;;;;4185338;28;20046;-63
2021/08/05 00:37:28;;;;;;;9.02;7.30;;;27.40;66.60;;;;;;4185249;28;20054;-63
2021/08/05 00:39:30;;;;;;;8.18;7.15;;;27.40;66.60;;;;;;4185137;28;20068;-63
2021/08/05 00:41:32;;;;;;;7.93;6.40;;;27.40;66.70;;;;;;4185257;28;20056;-63
2021/08/05 00:43:34;;;;;;;7.65;6.90;;;27.40;66.60;;;;;;4185004;28;20057;-43
2021/08/05 00:45:36;;;;;;;9.52;7.05;;;27.40;66.50;;;;;;4184475;28;20076;-43
2021/08/05 00:47:38;;;;;;;9.32;6.95;;;27.40;66.50;;;;;;4184345;28;20049;-42
2021/08/05 00:49:40;;;;;;;8.00;6.72;;;27.40;66.70;;;;;;4184361;28;20105;-43
2021/08/05 00:51:43;;;;;;;10.82;6.78;;;27.40;66.60;;;;;;4184441;28;20508;-43
2021/08/05 00:53:45;;;;;;;7.65;5.90;;;27.40;66.50;;;;;;4184263;28;20049;-43
2021/08/05 00:55:47;;;;;;;8.77;7.38;;;27.40;66.50;;;;;;4184376;28;20045;-43
2021/08/05 00:57:49;;;;;;;10.88;7.38;;;27.40;66.30;;;;;;4184435;28;20087;-43
2021/08/05 00:59:51;;;;;;;9.18;7.00;;;27.40;66.30;;;;;;4184301;28;20045;-44
2021/08/05 01:02:00;;;;;;;8.40;6.78;;;27.40;66.00;;;;;;4184202;28;20041;-44
2021/08/05 01:04:03;;;;;;;8.32;6.53;;;27.40;66.10;;;;;;4184170;28;20113;-45
2021/08/05 01:06:23;;;;;;;15.90;7.65;;;27.40;66.10;;;;;;4184248;28;20109;-43
2021/08/05 01:08:26;;;;;;;8.88;7.03;;;27.40;65.90;;;;;;4184377;28;20076;-44
2021/08/05 01:10:37;;;;;;;8.55;7.38;;;27.40;65.90;;;;;;4184304;28;20102;-42
2021/08/05 01:13:07;;;;;;;6.78;6.18;;;27.40;65.70;;;;;;4184467;28;20110;-43
2021/08/05 01:15:14;;;;;;;10.35;7.10;;;27.40;65.90;;;;;;4175691;28;20050;-51
2021/08/05 01:17:18;;;;;;;9.68;7.43;;;27.40;65.90;;;;;;4183126;28;20073;-48
2021/08/05 01:19:43;;;;;;;8.55;6.63;;;27.40;65.80;;;;;;4183244;28;20112;-49
2021/08/05 01:21:45;;;;;;;10.23;6.65;;;27.40;65.70;;;;;;4183609;28;20064;-50
2021/08/05 01:23:54;;;;;;;8.32;6.68;;;27.40;65.70;;;;;;4183207;28;20042;-48
2021/08/05 01:26:23;;;;;;;8.30;7.20;;;27.40;65.60;;;;;;4183322;28;20105;-50
2021/08/05 01:28:25;;;;;;;8.43;7.60;;;27.40;65.60;;;;;;4183384;28;20342;-49
2021/08/05 01:30:28;;;;;;;9.38;6.78;;;27.40;65.50;;;;;;4183341;28;20053;-48
2021/08/05 01:32:30;;;;;;;10.82;8.13;;;27.40;65.50;;;;;;4183005;28;20079;-47
2021/08/05 01:34:33;;;;;;;11.77;6.78;;;27.40;65.60;;;;;;4183050;28;20053;-50
2021/08/05 01:36:35;;;;;;;8.90;7.00;;;27.40;65.70;;;;;;4182980;28;20109;-51
2021/08/05 01:38:38;;;;;;;8.65;7.40;;;27.30;65.70;;;;;;4182900;28;20049;-50
2021/08/05 01:40:41;;;;;;;7.57;6.78;;;27.40;65.50;;;;;;4183054;28;20526;-49
2021/08/05 01:42:44;;;;;;;11.50;8.38;;;27.40;65.60;;;;;;4183618;28;20052;-43
2021/08/05 01:44:51;;;;;;;11.05;8.75;;;27.40;65.50;;;;;;4183881;28;20049;-43
2021/08/05 01:46:54;;;;;;;10.55;9.55;;;27.30;65.50;;;;;;4183804;28;20045;-43
2021/08/05 01:48:56;;;;;;;14.32;11.27;;;27.30;65.40;;;;;;4183601;28;20071;-42
2021/08/05 01:51:00;;;;;;;14.15;11.02;;;27.40;65.30;;;;;;4183440;28;20045;-50
2021/08/05 01:53:03;;;;;;;12.10;10.30;;;27.30;65.30;;;;;;4182604;28;20057;-50
2021/08/05 01:55:06;;;;;;;13.43;9.25;;;27.30;65.20;;;;;;4182651;28;20055;-48
2021/08/05 01:57:12;;;;;;;10.82;9.70;;;27.30;65.40;;;;;;4182522;28;20049;-51
2021/08/05 01:59:14;;;;;;;12.10;10.65;;;27.30;65.00;;;;;;4182418;28;20053;-49
2021/08/05 02:01:17;;;;;;;17.05;13.65;;;27.30;65.00;;;;;;4182400;28;20050;-47
2021/08/05 02:03:19;;;;;;;15.95;13.13;;;27.30;64.80;;;;;;4182719;28;20045;-52
2021/08/05 02:05:33;;;;;;;13.63;12.18;;;27.20;64.90;;;;;;4182585;28;20049;-48
2021/08/05 02:07:45;;;;;;;13.25;11.95;;;27.30;64.80;;;;;;4182679;28;20045;-50
2021/08/05 02:10:08;;;;;;;13.93;12.52;;;27.30;64.70;;;;;;4182512;28;20068;-50
2021/08/05 02:12:11;;;;;;;15.55;12.48;;;27.20;64.60;;;;;;4182565;28;20053;-49
2021/08/05 02:14:15;;;;;;;14.27;12.60;;;27.20;64.40;;;;;;4182526;28;20050;-50
2021/08/05 02:16:18;;;;;;;;;;;27.30;64.40;;;;;;4183042;28;20046;-52
2021/08/05 02:18:25;;;;;;;16.27;12.20;;;27.20;64.50;;;;;;4182392;28;19984;-51
2021/08/05 02:20:27;;;;;;;12.63;11.35;;;27.20;64.30;;;;;;4182258;28;20144;-49
2021/08/05 02:22:29;;;;;;;14.73;10.80;;;27.20;64.50;;;;;;4182271;28;20045;-51
2021/08/05 02:24:33;;;;;;;11.00;9.43;;;27.20;64.30;;;;;;4182267;28;20109;-43
2021/08/05 02:26:36;;;;;;;10.90;8.98;;;27.20;64.50;;;;;;4183140;28;20060;-43
2021/08/05 02:28:38;;;;;;;11.48;8.90;;;27.20;64.70;;;;;;4183126;28;20045;-43
2021/08/05 02:30:40;;;;;;;12.02;9.75;;;27.20;64.60;;;;;;4183077;28;20053;-43
2021/08/05 02:32:43;;;;;;;11.52;9.95;;;27.20;64.70;;;;;;4182946;28;20053;-42
2021/08/05 02:34:47;;;;;;;10.73;9.00;;;27.20;64.60;;;;;;4182872;28;20045;-43
2021/08/05 02:36:49;;;;;;;9.95;8.65;;;27.20;64.60;;;;;;4182662;28;20121;-44
2021/08/05 02:38:51;;;;;;;10.38;9.32;;;27.20;64.60;;;;;;4182641;28;20053;-63
2021/08/05 02:40:55;;;;;;;9.80;8.77;;;27.20;64.60;;;;;;4182437;28;20055;-63
2021/08/05 02:42:59;;;;;;;11.15;9.13;;;27.30;64.50;;;;;;4182492;28;20119;-63
2021/08/05 02:45:02;;;;;;;11.40;8.48;;;27.20;64.40;;;;;;4182746;28;20049;-63
2021/08/05 02:47:05;;;;;;;10.90;9.35;;;27.20;64.40;;;;;;4182600;28;20049;-65
2021/08/05 02:49:07;;;;;;;13.80;9.77;;;27.20;64.30;;;;;;4182378;28;20068;-66
2021/08/05 02:51:10;;;;;;;12.85;9.40;;;27.20;64.40;;;;;;4182377;28;20063;-65
2021/08/05 02:53:13;;;;;;;12.10;9.23;;;27.20;64.40;;;;;;4182143;28;20053;-65
2021/08/05 02:55:15;;;;;;;14.10;8.73;;;27.20;64.50;;;;;;4182174;28;20117;-66
2021/08/05 02:57:18;;;;;;;9.48;8.48;;;27.20;64.60;;;;;;4182571;28;20077;-49
2021/08/05 02:59:20;;;;;;;11.10;10.00;;;27.20;64.50;;;;;;4182985;28;20132;-45
2021/08/05 03:01:22;;;;;;;9.90;8.90;;;27.20;64.50;;;;;;4182760;28;20050;-47
2021/08/05 03:03:25;;;;;;;10.27;9.23;;;27.20;64.70;;;;;;4182924;28;20046;-45
2021/08/05 03:05:27;;;;;;;8.65;7.82;;;27.20;64.60;;;;;;4182789;28;20402;-45
2021/08/05 03:07:29;;;;;;;11.40;8.82;;;27.20;64.70;;;;;;4182868;28;20041;-49
2021/08/05 03:09:31;;;;;;;10.68;9.45;;;27.20;64.60;;;;;;4165790;28;20058;-45
2021/08/05 03:11:33;;;;;;;12.45;9.57;;;27.10;64.70;;;;;;4182001;28;20049;-45
2021/08/05 03:13:35;;;;;;;10.48;8.52;;;27.20;64.70;;;;;;4182857;28;20059;-44
2021/08/05 03:15:37;;;;;;;10.93;8.77;;;27.20;64.80;;;;;;4182772;28;20502;-44
2021/08/05 03:17:39;;;;;;;10.70;9.43;;;27.20;64.80;;;;;;4182829;28;20132;-47
2021/08/05 03:19:42;;;;;;;12.73;10.00;;;27.20;64.80;;;;;;4182935;28;20095;-65
2021/08/05 03:21:44;;;;;;;11.35;10.25;;;27.20;65.00;;;;;;4182666;28;20067;-57
2021/08/05 03:23:46;;;;;;;13.40;10.60;;;27.20;64.90;;;;;;4182724;28;20063;-57
2021/08/05 03:25:48;;;;;;;10.32;9.25;;;27.20;65.00;;;;;;4182608;28;20113;-57
2021/08/05 03:27:50;;;;;;;10.57;9.38;;;27.20;65.10;;;;;;4182670;28;20073;-58
2021/08/05 03:29:52;;;;;;;10.77;9.55;;;27.20;65.20;;;;;;4182636;28;20483;-57
2021/08/05 03:31:54;;;;;;;10.02;8.65;;;27.20;65.20;;;;;;4182658;28;20075;-64
2021/08/05 03:33:56;;;;;;;12.63;10.07;;;27.20;65.30;;;;;;4182793;28;20128;-65
2021/08/05 03:35:58;;;;;;;10.65;9.55;;;27.20;65.20;;;;;;4182761;28;20049;-65
2021/08/05 03:38:00;;;;;;;13.15;10.43;;;27.10;65.20;;;;;;4182814;28;20111;-63
2021/08/05 03:40:02;;;;;;;19.48;10.75;;;27.20;65.20;;;;;;4182567;28;20109;-62
2021/08/05 03:42:04;;;;;;;12.38;10.30;;;27.20;65.20;;;;;;4182578;28;20045;-62
2021/08/05 03:44:06;;;;;;;15.43;10.43;;;27.20;65.40;;;;;;4182377;28;20045;-63
2021/08/05 03:46:08;;;;;;;12.80;10.95;;;27.20;65.30;;;;;;4182629;28;20079;-63
2021/08/05 03:48:10;;;;;;;11.07;9.65;;;27.20;65.30;;;;;;4182638;28;20075;-63
2021/08/05 03:50:12;;;;;;;12.55;10.82;;;27.20;65.60;;;;;;4182583;28;20105;-63
2021/08/05 03:52:15;;;;;;;13.88;9.65;;;27.20;65.50;;;;;;4182479;28;20046;-63
2021/08/05 03:54:35;;;;;;;16.02;10.95;;;27.10;65.70;;;;;;4182509;28;20050;-62
2021/08/05 03:56:37;;;;;;;12.15;10.77;;;27.20;65.60;;;;;;4182448;28;20053;-63
2021/08/05 03:58:39;;;;;;;13.38;10.98;;;27.10;65.60;;;;;;4182060;28;20041;-63
2021/08/05 04:00:41;;;;;;;14.15;11.50;;;27.20;65.60;;;;;;4164231;28;20076;-57
2021/08/05 04:02:43;;;;;;;12.25;10.18;;;27.20;65.60;;;;;;4181645;28;20042;-51
2021/08/05 04:04:45;;;;;;;11.95;9.45;;;27.20;65.60;;;;;;4181391;28;20052;-49
2021/08/05 04:06:54;;;;;;;13.32;11.27;;;27.20;65.60;;;;;;4181355;28;20063;-50
2021/08/05 04:08:56;;;;;;;11.77;10.52;;;27.20;65.60;;;;;;4181279;28;20045;-49
2021/08/05 04:10:58;;;;;;;13.68;11.25;;;27.20;65.60;;;;;;4181590;28;20049;-64
2021/08/05 04:13:00;;;;;;;12.70;9.98;;;27.20;65.70;;;;;;4181603;28;20050;-48
2021/08/05 04:15:03;;;;;;;13.93;10.63;;;27.20;65.70;;;;;;4181756;28;20053;-45
2021/08/05 04:17:05;;;;;;;14.52;11.95;;;27.30;65.80;;;;;;4181803;28;20049;-46
2021/08/05 04:19:07;;;;;;;14.23;10.85;;;27.20;65.70;;;;;;4181882;28;20053;-44
2021/08/05 04:21:09;;;;;;;13.32;10.43;;;27.20;65.80;;;;;;4181814;28;20448;-45
2021/08/05 04:23:11;;;;;;;12.45;10.35;;;27.20;65.90;;;;;;4182576;28;20052;-47
2021/08/05 04:25:13;;;;;;;14.05;9.88;;;27.20;65.70;;;;;;4184801;28;20083;-44
2021/08/05 04:27:15;;;;;;;12.05;9.98;;;27.20;65.80;;;;;;4184773;28;20041;-45
2021/08/05 04:29:17;;;;;;;14.70;9.85;;;27.20;66.20;;;;;;4184785;28;20050;-50
2021/08/05 04:31:19;;;;;;;12.82;10.10;;;27.20;66.10;;;;;;4184899;28;20045;-45
2021/08/05 04:33:21;;;;;;;12.10;9.43;;;27.20;66.00;;;;;;4184561;28;20053;-44
2021/08/05 04:35:23;;;;;;;14.27;12.75;;;27.20;66.20;;;;;;4184721;28;20053;-49
2021/08/05 04:37:25;;;;;;;16.40;11.52;;;27.20;66.10;;;;;;4184477;28;20417;-45
2021/08/05 04:39:27;;;;;;;12.38;10.27;;;27.20;66.20;;;;;;4184151;28;20080;-53
2021/08/05 04:41:30;;;;;;;13.50;11.35;;;27.20;66.20;;;;;;4184317;28;20109;-64
2021/08/05 04:43:32;;;;;;;16.00;11.88;;;27.20;66.30;;;;;;4184955;28;20049;-64
2021/08/05 04:45:35;;;;;;;20.20;15.30;;;27.20;66.20;;;;;;4184919;28;20041;-64
2021/08/05 04:47:52;;;;;;;17.65;15.05;;;27.20;66.20;;;;;;4185033;28;20045;-64
2021/08/05 04:49:54;;;;;;;22.27;14.10;;;27.20;66.20;;;;;;4181677;28;20376;-62
2021/08/05 04:51:56;;;;;;;19.90;14.48;;;27.20;67.30;;;;;;4191152;28;20045;-62
2021/08/05 04:54:02;;;;;;;19.65;15.45;;;27.10;67.60;;;;;;4200363;28;20076;-62
2021/08/05 04:56:05;;;;;;;23.92;18.17;;;27.10;67.70;;;;;;4196142;28;20046;-63
2021/08/05 04:58:07;;;;;;;184.85;142.68;;;27.10;67.40;;;;;;4183384;28;20049;-63
2021/08/05 05:00:10;;;;;;;90.43;70.50;;;27.00;68.10;;;;;;4183453;28;20053;-62
2021/08/05 05:02:12;;;;;;;91.72;68.00;;;27.00;68.20;;;;;;4183045;28;20056;-58
2021/08/05 05:04:17;;;;;;;62.58;50.88;;;27.00;68.30;;;;;;4183324;28;20109;-57
2021/08/05 05:06:19;;;;;;;57.08;42.40;;;26.90;69.00;;;;;;4183582;28;20045;-58
2021/08/05 05:08:23;;;;;;;46.50;36.08;;;26.90;69.30;;;;;;4183294;28;20064;-59
2021/08/05 05:10:25;;;;;;;40.97;32.42;;;26.80;69.20;;;;;;4183355;28;20458;-62
2021/08/05 05:12:27;;;;;;;51.35;39.75;;;26.60;69.50;;;;;;4182952;28;20080;-63
2021/08/05 05:14:29;;;;;;;48.45;40.03;;;26.50;70.00;;;;;;4183309;28;20084;-62
2021/08/05 05:16:31;;;;;;;56.67;48.35;;;26.50;70.00;;;;;;4181142;28;20525;-60
2021/08/05 05:18:33;;;;;;;48.92;36.67;;;26.70;69.70;;;;;;4183495;28;20058;-59
2021/08/05 05:20:36;;;;;;;41.95;35.90;;;26.80;69.20;;;;;;4183249;28;20055;-59
2021/08/05 05:22:39;;;;;;;42.60;35.88;;;26.90;69.00;;;;;;4183145;28;20052;-59
2021/08/05 05:24:41;;;;;;;43.75;33.00;;;26.90;68.90;;;;;;4181679;28;20132;-61
2021/08/05 05:26:43;;;;;;;43.13;31.92;;;26.80;69.20;;;;;;4182687;28;20049;-51
2021/08/05 05:28:45;;;;;;;40.65;31.92;;;26.70;69.60;;;;;;4182785;28;20050;-51
2021/08/05 05:30:47;;;;;;;33.55;28.20;;;26.80;69.60;;;;;;4183179;28;20470;-55
2021/08/05 05:32:50;;;;;;;31.55;26.02;;;26.80;69.40;;;;;;4183078;28;20050;-55
2021/08/05 05:34:52;;;;;;;29.33;24.80;;;26.90;69.30;;;;;;4182054;28;20094;-52
2021/08/05 05:36:54;;;;;;;27.90;24.30;;;26.90;69.20;;;;;;4164565;28;20046;-54
2021/08/05 05:38:56;;;;;;;28.77;23.17;;;27.00;68.80;;;;;;4182382;28;20059;-63
2021/08/05 05:40:58;;;;;;;28.48;25.38;;;27.00;68.70;;;;;;4183036;28;20461;-58
2021/08/05 05:43:00;;;;;;;70.75;62.63;;;27.00;69.10;;;;;;4182253;28;20052;-58
2021/08/05 05:45:04;;;;;;;86.43;77.03;;;26.90;69.70;;;;;;4182871;28;20109;-57
2021/08/05 05:47:06;;;;;;;65.25;58.10;;;26.80;70.50;;;;;;4182593;28;20050;-58
2021/08/05 05:49:08;;;;;;;51.92;46.30;;;26.80;70.10;;;;;;4182621;28;20042;-60
2021/08/05 05:51:10;;;;;;;47.47;40.17;;;26.80;70.30;;;;;;4182330;28;20049;-60
2021/08/05 05:53:15;;;;;;;45.60;38.92;;;26.90;69.80;;;;;;4182153;28;20065;-58
2021/08/05 05:55:18;;;;;;;41.95;36.25;;;26.90;69.70;;;;;;4182486;28;20109;-58
2021/08/05 05:57:20;;;;;;;41.30;33.35;;;26.90;70.00;;;;;;4182171;28;20084;-60
2021/08/05 05:59:22;;;;;;;37.17;33.13;;;26.90;69.90;;;;;;4182694;28;20057;-60
2021/08/05 06:01:24;;;;;;;36.33;29.65;;;26.80;70.40;;;;;;4182478;28;20049;-54
2021/08/05 06:03:26;;;;;;;32.42;27.13;;;26.80;70.30;;;;;;4182062;28;20109;-50
2021/08/05 06:05:28;;;;;;;30.63;27.30;;;26.80;70.10;;;;;;4182893;28;20053;-49
2021/08/05 06:07:30;;;;;;;30.77;26.58;;;26.90;70.00;;;;;;4181779;28;20049;-51
2021/08/05 06:09:32;;;;;;;29.52;24.73;;;27.00;69.60;;;;;;4182479;28;20108;-50
2021/08/05 06:11:34;;;;;;;27.00;23.33;;;27.00;69.60;;;;;;4182467;28;20056;-53
2021/08/05 06:13:37;;;;;;;27.48;23.00;;;27.00;69.60;;;;;;4182356;28;20075;-58
2021/08/05 06:15:39;;;;;;;29.98;21.40;;;26.90;70.10;;;;;;4182746;28;20052;-50
2021/08/05 06:17:41;;;;;;;27.23;22.60;;;26.90;70.40;;;;;;4182160;28;20103;-50
2021/08/05 06:19:44;;;;;;;24.25;21.20;;;26.90;70.50;;;;;;4182001;28;20049;-52
2021/08/05 06:21:46;;;;;;;23.88;19.77;;;26.80;70.60;;;;;;4182200;28;20109;-50
2021/08/05 06:23:48;;;;;;;26.38;18.00;;;26.80;70.50;;;;;;4182263;28;20105;-48
2021/08/05 06:25:50;;;;;;;22.95;17.17;;;26.70;70.40;;;;;;4182205;28;20498;-52
2021/08/05 06:27:52;;;;;;;20.98;18.05;;;26.80;70.40;;;;;;4182046;28;20050;-49
2021/08/05 06:29:54;;;;;;;18.67;16.67;;;26.90;70.00;;;;;;4182234;28;20115;-50
2021/08/05 06:31:56;;;;;;;20.30;17.35;;;26.90;70.00;;;;;;4181969;28;20063;-55
2021/08/05 06:33:58;;;;;;;22.08;17.80;;;26.90;69.80;;;;;;4182025;28;20534;-54
2021/08/05 06:36:00;;;;;;;20.95;16.73;;;26.90;70.00;;;;;;4182049;28;20049;-49
2021/08/05 06:38:03;;;;;;;16.13;14.52;;;26.90;70.10;;;;;;4181779;28;20112;-50
2021/08/05 06:40:06;;;;;;;17.92;15.70;;;26.80;69.90;;;;;;4182192;28;20493;-52
2021/08/05 06:42:08;;;;;;;21.83;17.67;;;26.90;69.80;;;;;;4181847;28;20045;-49
2021/08/05 06:44:11;;;;;;;19.27;15.65;;;26.90;70.00;;;;;;4181604;28;20053;-49
2021/08/05 06:46:13;;;;;;;19.50;14.67;;;26.90;69.90;;;;;;4180969;28;20049;-50
2021/08/05 06:48:15;;;;;;;21.67;15.88;;;27.00;69.60;;;;;;4181451;28;20076;-55
2021/08/05 06:50:18;;;;;;;16.33;13.93;;;27.00;69.20;;;;;;4182005;28;20052;-54
2021/08/05 06:52:20;;;;;;;16.45;13.82;;;27.10;69.00;;;;;;4181924;28;20049;-54
2021/08/05 06:54:22;;;;;;;13.70;12.35;;;27.20;69.00;;;;;;4181697;28;20049;-53
2021/08/05 06:56:25;;;;;;;18.95;14.52;;;27.20;68.90;;;;;;4181775;28;20050;-47
2021/08/05 06:58:29;;;;;;;15.88;13.23;;;27.10;68.90;;;;;;4181072;28;20049;-49
2021/08/05 07:00:31;;;;;;;17.90;13.88;;;27.10;68.90;;;;;;4181641;28;20049;-50
2021/08/05 07:02:33;;;;;;;16.30;13.95;;;27.10;68.70;;;;;;4181813;28;20372;-50
2021/08/05 07:04:35;;;;;;;14.40;12.15;;;27.10;69.00;;;;;;4181922;28;20418;-51
2021/08/05 07:06:37;;;;;;;15.82;12.23;;;27.20;68.70;;;;;;4181204;28;20046;-49
2021/08/05 07:08:39;;;;;;;21.90;13.63;;;27.10;68.70;;;;;;4181369;28;20048;-47
2021/08/05 07:10:41;;;;;;;14.70;10.68;;;27.10;68.60;;;;;;4181149;28;20049;-47
2021/08/05 07:12:43;;;;;;;14.35;11.80;;;27.10;68.70;;;;;;4181693;28;20140;-50
2021/08/05 07:14:45;;;;;;;14.35;10.50;;;27.20;68.50;;;;;;4181445;28;20112;-46
2021/08/05 07:16:47;;;;;;;11.93;10.45;;;27.20;68.70;;;;;;4181167;28;20077;-49
2021/08/05 07:18:49;;;;;;;16.35;13.23;;;27.20;68.20;;;;;;4181529;28;20060;-50
2021/08/05 07:20:51;;;;;;;14.23;10.77;;;27.20;68.30;;;;;;4181399;28;20060;-48
2021/08/05 07:22:53;;;;;;;12.85;10.23;;;27.30;68.30;;;;;;4180969;28;20068;-46
2021/08/05 07:24:55;;;;;;;9.07;6.35;;;27.30;68.70;;;;;;4181564;28;20059;-49
2021/08/05 07:26:57;;;;;;;8.10;7.40;;;27.30;68.90;;;;;;4180352;28;20080;-50
2021/08/05 07:28:59;;;;;;;7.80;6.95;;;27.30;68.90;;;;;;4181314;28;20046;-50
2021/08/05 07:31:01;;;;;;;6.38;5.70;;;27.20;68.80;;;;;;4181235;28;20048;-47
2021/08/05 07:33:03;;;;;;;6.22;5.10;;;27.20;69.00;;;;;;4181316;28;20053;-48
2021/08/05 07:35:06;;;;;;;5.22;4.57;;;27.30;68.70;;;;;;4181008;28;20050;-48
2021/08/05 07:37:08;;;;;;;5.82;5.22;;;27.40;68.70;;;;;;4180905;28;20050;-49
2021/08/05 07:39:11;;;;;;;4.78;4.38;;;27.40;68.60;;;;;;4181248;28;20050;-49
2021/08/05 07:41:16;;;;;;;5.53;4.30;;;27.40;68.60;;;;;;4181168;28;20064;-51
2021/08/05 07:43:18;;;;;;;5.57;4.43;;;27.40;68.40;;;;;;4180706;28;20053;-48
2021/08/05 07:45:20;;;;;;;8.43;7.50;;;27.40;68.30;;;;;;4181149;28;20045;-46
2021/08/05 07:47:24;;;;;;;5.05;4.55;;;27.40;68.20;;;;;;4180683;28;20049;-51
2021/08/05 07:49:27;;;;;;;6.03;3.63;;;27.40;68.60;;;;;;4181469;28;20041;-45
2021/08/05 07:51:29;;;;;;;5.70;4.75;;;27.40;68.40;;;;;;4182469;28;20045;-44
2021/08/05 07:53:31;;;;;;;4.20;3.58;;;27.40;68.50;;;;;;4180609;28;20059;-58
2021/08/05 07:55:33;;;;;;;5.82;3.83;;;27.40;68.50;;;;;;4180248;28;20060;-59
2021/08/05 07:57:35;;;;;;;5.95;5.40;;;27.40;68.40;;;;;;4181747;28;20068;-43
2021/08/05 07:59:37;;;;;;;11.23;7.10;;;27.40;68.20;;;;;;4185756;28;20107;-44
2021/08/05 08:01:39;;;;;;;12.60;9.13;;;27.40;68.10;;;;;;4185348;28;20048;-50
2021/08/05 08:03:42;;;;;;;4.30;3.20;;;27.40;68.00;;;;;;4185488;28;20056;-44
2021/08/05 08:05:45;;;;;;;3.55;3.13;;;27.40;68.60;;;;;;4185703;28;20164;-45
2021/08/05 08:07:47;;;;;;;3.78;3.28;;;27.40;68.30;;;;;;4185530;28;20046;-44
2021/08/05 08:09:50;;;;;;;7.30;5.53;;;27.40;68.10;;;;;;4185562;28;20056;-45
2021/08/05 08:11:52;;;;;;;10.98;9.85;;;27.40;67.70;;;;;;4184870;28;20132;-51
2021/08/05 08:13:54;;;;;;;18.88;13.05;;;27.40;67.70;;;;;;4184243;28;20061;-52
2021/08/05 08:15:56;;;;;;;11.07;9.73;;;27.40;66.90;;;;;;4185543;28;20049;-46
2021/08/05 08:17:58;;;;;;;9.55;8.55;;;27.40;67.30;;;;;;4185386;28;20049;-47
2021/08/05 08:20:01;;;;;;;12.25;10.82;;;27.40;67.50;;;;;;4185510;28;20072;-44
2021/08/05 08:22:03;;;;;;;14.55;11.55;;;27.40;67.00;;;;;;4185483;28;20059;-45
2021/08/05 08:24:05;;;;;;;14.85;11.80;;;27.40;65.90;;;;;;4185128;28;20052;-47
2021/08/05 08:26:07;;;;;;;14.75;11.05;;;27.50;66.00;;;;;;4183911;28;20072;-60
2021/08/05 08:28:09;;;;;;;13.48;11.77;;;27.40;66.30;;;;;;4183679;28;20041;-60
2021/08/05 08:30:13;;;;;;;14.75;11.70;;;27.40;66.40;;;;;;4183824;28;20060;-60
2021/08/05 08:32:15;;;;;;;14.95;11.93;;;27.40;66.50;;;;;;4184013;28;20045;-59
2021/08/05 08:34:17;;;;;;;16.60;10.98;;;27.40;66.50;;;;;;4183843;28;20046;-60
2021/08/05 08:36:19;;;;;;;12.48;10.27;;;27.40;66.40;;;;;;4184066;28;20051;-60
2021/08/05 08:38:24;;;;;;;12.15;10.88;;;27.50;66.60;;;;;;4183292;28;20058;-59
2021/08/05 08:40:26;;;;;;;;;;;27.40;66.20;;;;;;4184215;28;20072;-59
2021/08/05 08:42:29;;;;;;;13.68;10.60;;;27.50;66.50;;;;;;4183832;28;19927;-59
2021/08/05 08:44:31;;;;;;;12.85;11.50;;;27.50;66.40;;;;;;4183802;28;20038;-59
2021/08/05 08:46:34;;;;;;;14.57;11.15;;;27.50;66.30;;;;;;4184725;28;20050;-50
2021/08/05 08:48:40;;;;;;;14.18;12.52;;;27.50;66.00;;;;;;4184771;28;20048;-47
2021/08/05 08:50:43;;;;;;;12.57;11.25;;;27.50;66.10;;;;;;4184399;28;20046;-51
2021/08/05 08:52:46;;;;;;;16.97;10.83;;;27.60;65.90;;;;;;4184182;28;20079;-46
2021/08/05 08:54:50;;;;;;;14.27;12.60;;;27.50;65.70;;;;;;4184029;28;20071;-48
2021/08/05 08:56:54;;;;;;;17.55;12.27;;;27.50;64.90;;;;;;4183839;28;20050;-51
2021/08/05 08:58:58;;;;;;;23.65;11.50;;;27.50;62.50;;;;;;4183097;28;20049;-47
2021/08/05 09:01:00;;;;;;;22.35;12.50;;;27.50;62.70;;;;;;4183510;28;20054;-48
2021/08/05 09:03:03;;;;;;;12.40;11.05;;;27.50;64.20;;;;;;4165936;28;20049;-48
2021/08/05 09:05:06;;;;;;;23.48;12.75;;;27.50;63.60;;;;;;4183356;28;20046;-47
2021/08/05 09:07:08;;;;;;;16.33;10.85;;;27.50;62.30;;;;;;4183557;28;20045;-51
2021/08/05 09:09:10;;;;;;;16.70;10.85;;;27.50;62.50;;;;;;4182433;28;20084;-49
2021/08/05 09:11:12;;;;;;;14.05;11.25;;;27.50;63.00;;;;;;4182839;28;20112;-53
2021/08/05 09:13:16;;;;;;;12.88;10.10;;;27.50;63.00;;;;;;4183309;28;20110;-57
2021/08/05 09:15:39;;;;;;;12.93;11.30;;;27.50;62.60;;;;;;4183277;28;20102;-55
2021/08/05 09:17:42;;;;;;;13.43;10.82;;;27.60;62.20;;;;;;4182965;28;20049;-57
2021/08/05 09:19:45;;;;;;;16.58;10.30;;;27.60;62.10;;;;;;4183513;28;20435;-57
2021/08/05 09:21:52;;;;;;;13.98;10.65;;;27.60;61.90;;;;;;4183270;28;20103;-55
2021/08/05 09:24:09;;;;;;;11.85;10.13;;;27.70;62.00;;;;;;4183426;28;20046;-47
2021/08/05 09:26:42;;;;;;;14.40;10.35;;;27.70;62.30;;;;;;4183249;28;20109;-51
2021/08/05 09:28:44;;;;;;;14.13;10.20;;;27.60;63.00;;;;;;4182943;28;20050;-53
2021/08/05 09:30:46;;;;;;;19.95;11.68;;;27.60;61.80;;;;;;4183452;28;20050;-52
2021/08/05 09:32:48;;;;;;;14.55;9.80;;;27.60;62.60;;;;;;4183031;28;20053;-48
2021/08/05 09:35:07;;;;;;;14.57;10.63;;;27.60;61.90;;;;;;4183018;28;20113;-63
2021/08/05 09:37:12;;;;;;;11.18;9.98;;;27.60;61.10;;;;;;4183213;28;20049;-54
2021/08/05 09:39:15;;;;;;;12.52;9.85;;;27.60;61.50;;;;;;4182931;28;20055;-52
2021/08/05 09:41:17;;;;;;;17.90;10.10;;;27.60;62.20;;;;;;4183812;28;20057;-46
2021/08/05 09:43:27;;;;;;;15.45;9.82;;;27.60;62.40;;;;;;4183561;28;20084;-43
2021/08/05 09:45:37;;;;;;;11.23;10.10;;;27.60;61.90;;;;;;4182974;28;20056;-51
2021/08/05 09:47:42;;;;;;;12.40;10.40;;;27.60;61.70;;;;;;4182619;28;20081;-50
2021/08/05 09:49:49;;;;;;;12.85;9.85;;;27.60;62.10;;;;;;4182997;28;20053;-48
2021/08/05 09:51:56;;;;;;;14.57;9.30;;;27.60;61.50;;;;;;4182855;28;20452;-46
2021/08/05 09:54:05;;;;;;;12.30;9.70;;;27.60;60.70;;;;;;4182425;28;20045;-49
2021/08/05 09:56:11;;;;;;;12.75;9.65;;;27.70;60.80;;;;;;4182920;28;20045;-53
2021/08/05 09:58:26;;;;;;;12.23;9.45;;;27.60;61.10;;;;;;3830877;28;10000674;-58
2021/08/05 10:00:48;;;;;;;10.52;8.52;;;27.60;60.70;;;;;;4180785;28;20042;-57
2021/08/05 10:02:52;;;;;;;12.13;9.73;;;27.70;60.70;;;;;;4180717;28;20067;-55
2021/08/05 10:04:55;;;;;;;14.23;9.48;;;27.70;60.50;;;;;;4180612;28;20088;-54
2021/08/05 10:06:58;;;;;;;11.10;10.00;;;27.70;60.80;;;;;;4181040;28;20049;-56
2021/08/05 10:09:00;;;;;;;10.88;9.68;;;27.70;60.80;;;;;;4180423;28;20064;-57
2021/08/05 10:11:03;;;;;;;10.70;8.73;;;27.70;60.60;;;;;;4180831;28;20048;-57
2021/08/05 10:13:05;;;;;;;10.95;9.13;;;27.70;60.90;;;;;;4180771;28;20063;-54
2021/08/05 10:15:13;;;;;;;12.05;9.80;;;27.80;62.00;;;;;;4180762;28;20113;-57
2021/08/05 10:17:17;;;;;;;12.93;9.15;;;27.70;61.80;;;;;;4180683;28;20053;-56
2021/08/05 10:19:19;;;;;;;10.70;9.60;;;27.70;62.10;;;;;;4180672;28;20045;-56
2021/08/05 10:21:23;;;;;;;11.50;8.02;;;27.80;62.00;;;;;;4180052;28;20451;-56
2021/08/05 10:23:28;;;;;;;11.70;8.88;;;27.80;61.90;;;;;;4180741;28;20060;-56
2021/08/05 10:25:30;;;;;;;12.70;8.95;;;27.80;61.60;;;;;;4180798;28;20105;-56
2021/08/05 10:27:34;;;;;;;9.52;8.55;;;27.80;61.60;;;;;;4180581;28;20079;-53
2021/08/05 10:29:38;;;;;;;14.07;9.23;;;27.70;61.60;;;;;;4180494;28;20049;-49
2021/08/05 10:31:41;;;;;;;12.25;9.05;;;27.80;61.80;;;;;;4180282;28;20072;-57